Pagrindinis puslapis
METAR-TAF:

METAR-TAF

Oro uostai :

Fukuokas, Vietnamas

platuma: 10-10-18N, ilguma: 103-59-28E, Aukštis: 11 m

Dabartinis oras

Ataskaita buvo paskelbta 33 minutes, ne 20:30 UTC
Vėjas 3 kt iš Šiaurės/Šiaurės Vakarų
Temperatūra 25°C
Drėgmė 94%
Slėgis 1008 hPa
Matomumas 10 km arba daugiau
Mažai debesys ne aukštis 1500 ft

METAR: VVPQ 222030Z 33003KT 9999 FEW015 25/24 Q1008 NOSIG

Laikas: 04:03 (21:03 UTC)

Prognozė

Ataskaita buvo paskelbta 4 valandos ir 3 minutes, ne 17:00 UTC
Prognozė galioja nuo 22 metu 18 UTC su 23 metu 18 UTC
Vėjas 3 kt nuo kintamojo kryptimis
Matomumas 10 km arba daugiau
Išsisklaidę debesys ne aukštis 1500 ft
Išsisklaidę debesys ne aukštis 4000 ft
Tapsmas
nuo 23 metu 03 UTC su 23 metu 04 UTC
Vėjas 10 kt iš Rytų
Laikinai
nuo 23 metu 07 UTC su 23 metu 10 UTC
Matomumas: 5000 m
Su prošvaistėmis ne aukštis 1300 ft
Mažai debesys ne aukštis 1500 ft, Liūtiniai kamuoliniai debesys.
lietus

TAF: VVPQ 221700Z 2218/2318 VRB03KT 9999 SCT015 SCT040 BECMG 2303/2304 10010KT TEMPO 2307/2310 5000 SHRA BKN013 FEW015CB

Orai ataskaitas ir orų prognozės (METAR, TAF).

turimą stotys yra geltonos ir raudonos taškus žemėlapyje.

Perkelti pele per norėdami pamatyti stoties vardą.

Tada spustelėkite, norėdami matyti oro stebėjimo ir prognozės.

Norėdami pakeisti žemėlapį: spustelėkite ant žalios mygtukų su juodo kryžiaus žemyn,; žalią mygtuką su brūkšneliu, jei norite nutolinti; arba žalių rodyklių gretimoms žemėlapius.


METAR-TAF: